createdAt,value
2018-07-19T00:00:39.570Z,23.73
2018-07-19T00:03:10.677Z,23.87
2018-07-19T00:05:41.904Z,23.86
2018-07-19T00:08:12.833Z,23.87
2018-07-19T00:10:43.478Z,23.87
2018-07-19T00:13:14.524Z,23.89
2018-07-19T00:15:44.988Z,23.85
2018-07-19T00:18:14.992Z,23.80
2018-07-19T00:20:45.143Z,23.80
2018-07-19T00:23:15.415Z,23.81
2018-07-19T00:25:45.489Z,23.82
2018-07-19T00:28:15.546Z,23.79
2018-07-19T00:30:45.526Z,23.80
2018-07-19T00:33:16.124Z,23.75
2018-07-19T00:35:46.241Z,23.74
2018-07-19T00:38:16.464Z,23.74
2018-07-19T00:40:46.644Z,23.73
2018-07-19T00:43:16.757Z,23.74
2018-07-19T00:45:46.960Z,23.75
2018-07-19T00:48:17.388Z,23.68
2018-07-19T00:50:47.552Z,23.62
2018-07-19T00:53:18.053Z,23.62
2018-07-19T00:55:47.990Z,23.60
2018-07-19T00:58:18.183Z,23.56
2018-07-19T01:00:48.286Z,23.53
2018-07-19T01:03:18.483Z,23.50
2018-07-19T01:05:48.519Z,23.51
2018-07-19T01:08:18.963Z,23.49
2018-07-19T01:10:49.080Z,23.41
2018-07-19T01:13:19.408Z,23.37
2018-07-19T01:15:49.578Z,23.34
2018-07-19T01:18:19.673Z,23.31
2018-07-19T01:20:49.874Z,23.25
2018-07-19T01:23:19.881Z,23.24
2018-07-19T01:25:49.773Z,23.18
2018-07-19T01:28:19.959Z,23.18
2018-07-19T01:30:50.123Z,23.11
2018-07-19T01:33:20.308Z,23.08
2018-07-19T01:35:51.354Z,23.08
2018-07-19T01:38:22.140Z,23.06
2018-07-19T01:40:53.100Z,22.99
2018-07-19T01:43:23.714Z,22.92
2018-07-19T01:54:05.238Z,22.88
2018-07-19T01:56:35.329Z,22.60
2018-07-19T01:59:05.452Z,22.58
2018-07-19T02:01:35.872Z,22.55
2018-07-19T02:04:05.707Z,22.54
2018-07-19T02:06:36.375Z,22.55
2018-07-19T02:09:07.302Z,22.53
2018-07-19T02:11:37.082Z,22.51
2018-07-19T02:14:07.296Z,22.48
2018-07-19T02:16:38.299Z,22.47
2018-07-19T02:19:09.063Z,22.41
2018-07-19T02:24:05.063Z,22.34
2018-07-19T02:26:35.223Z,22.24
2018-07-19T02:29:06.178Z,22.15
2018-07-19T02:31:36.479Z,22.11
2018-07-19T02:34:06.539Z,22.11
2018-07-19T02:36:36.653Z,21.94
2018-07-19T02:39:10.958Z,21.91
2018-07-19T02:41:41.373Z,21.97
2018-07-19T02:44:13.018Z,21.89
2018-07-19T02:46:44.175Z,21.90
2018-07-19T02:49:14.529Z,21.91
2018-07-19T02:51:44.743Z,21.91
2018-07-19T02:54:14.838Z,21.91
2018-07-19T02:56:44.900Z,21.95
2018-07-19T02:59:15.149Z,21.90
2018-07-19T03:01:45.378Z,21.81
2018-07-19T03:04:15.462Z,21.87
2018-07-19T03:06:45.722Z,21.85
2018-07-19T03:09:15.928Z,21.85
2018-07-19T03:11:46.044Z,21.89
2018-07-19T03:14:16.045Z,21.90
2018-07-19T03:16:46.036Z,21.91
2018-07-19T03:19:15.997Z,21.83
2018-07-19T03:21:45.975Z,21.78
2018-07-19T03:24:16.113Z,21.68
2018-07-19T03:26:46.414Z,21.61
2018-07-19T03:29:16.496Z,21.57
2018-07-19T03:31:46.627Z,21.59
2018-07-19T03:34:17.020Z,21.63
2018-07-19T03:36:46.908Z,21.66
2018-07-19T03:39:17.340Z,21.68
2018-07-19T03:41:47.467Z,21.67
2018-07-19T03:44:17.752Z,21.63
2018-07-19T03:46:47.817Z,21.68
2018-07-19T03:49:18.113Z,21.72
2018-07-19T03:51:48.244Z,21.71
2018-07-19T03:54:18.548Z,21.67
2018-07-19T03:56:48.704Z,21.70
2018-07-19T03:59:18.870Z,21.69
2018-07-19T04:01:49.052Z,21.70
2018-07-19T04:04:19.445Z,21.71
2018-07-19T04:06:49.548Z,21.71
2018-07-19T04:09:19.955Z,21.76
2018-07-19T04:11:50.100Z,21.79
2018-07-19T04:14:20.170Z,21.76
2018-07-19T04:16:50.181Z,21.78
2018-07-19T04:19:20.515Z,21.81
2018-07-19T04:21:50.649Z,21.84
2018-07-19T04:24:20.783Z,21.88
2018-07-19T04:26:50.723Z,21.84
2018-07-19T04:29:23.173Z,21.81
2018-07-19T04:31:53.313Z,21.77
2018-07-19T04:34:23.497Z,21.77
2018-07-19T04:36:53.769Z,21.73
2018-07-19T04:39:23.198Z,21.77
2018-07-19T04:41:53.123Z,21.79
2018-07-19T04:44:23.444Z,21.79
2018-07-19T04:46:59.193Z,21.83
2018-07-19T04:49:31.470Z,21.79
2018-07-19T04:52:02.349Z,21.82
2018-07-19T04:54:32.905Z,21.81
2018-07-19T04:57:02.957Z,21.82
2018-07-19T04:59:33.155Z,21.89
2018-07-19T05:02:02.935Z,21.93
2018-07-19T05:04:32.672Z,21.95
2018-07-19T05:07:02.858Z,22.02
2018-07-19T05:09:33.067Z,22.09
2018-07-19T05:12:03.355Z,22.13
2018-07-19T05:14:33.544Z,22.15
2018-07-19T05:17:03.657Z,22.17
2018-07-19T05:19:33.941Z,22.23
2018-07-19T05:22:04.133Z,22.30
2018-07-19T05:24:34.280Z,22.32
2018-07-19T05:27:04.509Z,22.39
2018-07-19T05:29:34.633Z,22.38
2018-07-19T05:32:05.368Z,22.39
2018-07-19T05:34:36.214Z,22.47
2018-07-19T05:37:07.304Z,22.70
2018-07-19T05:39:38.609Z,23.07
2018-07-19T05:42:09.949Z,23.52
2018-07-19T05:44:40.975Z,23.92
2018-07-19T05:47:11.948Z,24.05
2018-07-19T05:49:43.119Z,24.29
2018-07-19T05:52:14.359Z,24.58
2018-07-19T05:54:45.628Z,24.78
2018-07-19T05:57:16.243Z,24.95
2018-07-19T05:59:46.800Z,25.05
2018-07-19T06:02:16.994Z,25.07
2018-07-19T06:04:47.154Z,25.12
2018-07-19T06:07:17.733Z,25.21
2018-07-19T06:09:50.734Z,25.28
2018-07-19T06:12:21.003Z,25.36
2018-07-19T06:14:50.975Z,25.43
2018-07-19T06:17:21.138Z,25.46
2018-07-19T06:19:51.119Z,25.45
2018-07-19T06:22:21.443Z,25.75
2018-07-19T06:24:51.618Z,26.02
2018-07-19T06:27:22.193Z,26.11
2018-07-19T06:29:52.130Z,26.11
2018-07-19T06:32:22.200Z,26.16
2018-07-19T06:34:52.431Z,26.05
2018-07-19T06:37:22.568Z,25.97
2018-07-19T06:39:52.842Z,25.96
2018-07-19T06:42:23.063Z,26.02
2018-07-19T06:44:53.233Z,25.96
2018-07-19T06:47:23.318Z,26.06
2018-07-19T06:49:53.548Z,26.01
2018-07-19T06:52:23.904Z,26.25
2018-07-19T06:54:54.143Z,26.18
2018-07-19T06:57:24.263Z,26.24
2018-07-19T06:59:54.422Z,26.24
2018-07-19T07:02:24.669Z,26.35
2018-07-19T07:04:54.894Z,26.48
2018-07-19T07:07:25.048Z,26.37
2018-07-19T07:09:55.127Z,25.84
2018-07-19T07:12:25.418Z,25.99
2018-07-19T07:14:55.514Z,26.01
2018-07-19T07:17:25.486Z,26.18
2018-07-19T07:19:55.563Z,26.19
2018-07-19T07:22:25.748Z,26.21
2018-07-19T07:24:56.384Z,26.36
2018-07-19T07:27:26.863Z,26.35
2018-07-19T07:29:58.048Z,26.07
2018-07-19T07:32:29.484Z,25.89
2018-07-19T07:35:00.710Z,25.75
2018-07-19T07:37:31.422Z,25.56
2018-07-19T07:40:02.544Z,25.43
2018-07-19T07:42:33.405Z,25.40
2018-07-19T07:45:03.674Z,25.35
2018-07-19T07:47:33.923Z,25.38
2018-07-19T07:50:04.118Z,25.42
2018-07-19T07:52:34.456Z,25.49
2018-07-19T07:55:04.963Z,25.67
2018-07-19T07:57:35.104Z,25.70
2018-07-19T08:00:05.328Z,25.64
2018-07-19T08:02:35.333Z,25.69
2018-07-19T08:05:05.613Z,25.74
2018-07-19T08:07:36.063Z,25.80
2018-07-19T08:10:06.814Z,25.75
2018-07-19T08:12:37.000Z,25.73
2018-07-19T08:15:07.145Z,25.80
2018-07-19T08:17:37.197Z,25.80
2018-07-19T08:20:07.630Z,25.84
2018-07-19T08:22:37.828Z,25.89
2018-07-19T08:25:07.863Z,25.99
2018-07-19T08:27:38.284Z,26.06
2018-07-19T08:30:08.433Z,26.10
2018-07-19T08:32:38.417Z,26.19
2018-07-19T08:35:08.763Z,26.29
2018-07-19T08:37:39.408Z,26.36
2018-07-19T08:40:09.908Z,26.47
2018-07-19T08:42:40.425Z,26.54
2018-07-19T08:45:10.748Z,26.61
2018-07-19T08:47:41.340Z,26.69
2018-07-19T08:50:11.549Z,26.71
2018-07-19T08:52:41.718Z,26.63
2018-07-19T08:55:12.186Z,26.66
2018-07-19T08:57:42.436Z,26.84
2018-07-19T09:00:12.605Z,26.99
2018-07-19T09:02:42.746Z,27.15
2018-07-19T09:05:12.864Z,27.15
2018-07-19T09:07:43.909Z,27.11
2018-07-19T09:10:14.976Z,27.15
2018-07-19T09:12:45.439Z,27.28
2018-07-19T09:15:15.779Z,27.29
2018-07-19T09:17:45.846Z,27.26
2018-07-19T09:20:15.944Z,27.28
2018-07-19T09:22:46.184Z,27.15
2018-07-19T09:25:16.623Z,27.18
2018-07-19T09:27:46.711Z,27.29
2018-07-19T09:30:16.931Z,27.29
2018-07-19T09:32:47.549Z,27.36
2018-07-19T09:35:18.241Z,27.40
2018-07-19T09:37:48.645Z,27.43
2018-07-19T09:40:18.930Z,27.46
2018-07-19T09:42:49.392Z,27.47
2018-07-19T09:45:19.939Z,27.49
2018-07-19T09:47:50.008Z,27.57
2018-07-19T09:50:20.489Z,27.59
2018-07-19T09:52:50.483Z,27.66
2018-07-19T09:55:20.923Z,27.73
2018-07-19T09:57:50.970Z,27.80
2018-07-19T10:00:26.291Z,27.74
2018-07-19T10:02:56.238Z,27.61
2018-07-19T10:05:26.413Z,27.62
2018-07-19T10:07:56.291Z,27.64
2018-07-19T10:10:26.804Z,27.52
2018-07-19T10:12:56.905Z,27.57
2018-07-19T10:15:27.350Z,27.78
2018-07-19T10:17:57.660Z,27.89
2018-07-19T10:20:27.806Z,28.00
2018-07-19T10:23:00.864Z,28.13
2018-07-19T10:25:30.875Z,28.23
2018-07-19T10:28:01.479Z,28.22
2018-07-19T10:30:31.334Z,28.13
2018-07-19T10:33:01.544Z,28.19
2018-07-19T10:35:31.764Z,28.13
2018-07-19T10:38:01.826Z,28.08
2018-07-19T10:40:31.833Z,27.99
2018-07-19T10:43:02.322Z,27.90
2018-07-19T10:45:32.404Z,27.91
2018-07-19T10:48:02.706Z,28.00
2018-07-19T10:50:32.450Z,28.04
2018-07-19T10:53:03.240Z,28.01
2018-07-19T10:55:34.589Z,27.96
2018-07-19T10:58:05.354Z,27.96
2018-07-19T11:04:06.314Z,27.91
2018-07-19T11:06:36.444Z,28.12
2018-07-19T11:09:09.369Z,28.31
2018-07-19T11:11:39.781Z,28.46
2018-07-19T11:14:10.001Z,28.48
2018-07-19T11:16:40.323Z,28.49
2018-07-19T11:19:10.344Z,28.45
2018-07-19T11:21:40.792Z,28.40
2018-07-19T11:24:10.967Z,28.49
2018-07-19T11:26:41.115Z,28.63
2018-07-19T11:29:11.371Z,28.75
2018-07-19T11:31:41.473Z,28.92
2018-07-19T11:34:10.995Z,29.02
2018-07-19T11:36:41.055Z,29.11
2018-07-19T11:39:11.065Z,29.16
2018-07-19T11:41:42.162Z,29.26
2018-07-19T11:44:12.371Z,29.32
2018-07-19T11:46:42.541Z,29.42
2018-07-19T11:49:12.687Z,29.41
2018-07-19T11:51:42.956Z,29.16
2018-07-19T11:54:13.184Z,29.01
2018-07-19T11:56:43.323Z,28.90
2018-07-19T11:59:14.013Z,28.83
2018-07-19T12:01:44.240Z,28.78
2018-07-19T12:04:14.925Z,28.79
2018-07-19T12:06:45.411Z,29.01
2018-07-19T12:09:15.540Z,29.27
2018-07-19T12:11:46.329Z,29.52
2018-07-19T12:14:16.509Z,29.57
2018-07-19T12:16:46.992Z,29.45
2018-07-19T12:19:17.366Z,29.38
2018-07-19T12:21:47.244Z,29.35
2018-07-19T12:24:17.322Z,29.29
2018-07-19T12:26:47.655Z,29.34
2018-07-19T12:29:17.261Z,29.41
2018-07-19T12:31:47.297Z,29.39
2018-07-19T12:34:17.399Z,29.50
2018-07-19T12:36:47.735Z,29.73
2018-07-19T12:39:17.805Z,30.01
2018-07-19T12:41:47.849Z,30.26
2018-07-19T12:44:17.905Z,30.43
2018-07-19T12:46:48.179Z,30.64
2018-07-19T12:49:18.860Z,30.83
2018-07-19T12:51:49.056Z,31.02
2018-07-19T12:54:19.609Z,31.25
2018-07-19T12:56:50.290Z,31.43
2018-07-19T12:59:20.477Z,31.62
2018-07-19T13:01:50.836Z,31.80
2018-07-19T13:04:21.120Z,31.96
2018-07-19T13:06:51.640Z,32.09
2018-07-19T13:09:21.895Z,32.17
2018-07-19T13:11:52.173Z,32.19
2018-07-19T13:14:23.811Z,32.14
2018-07-19T13:16:54.533Z,32.10
2018-07-19T13:19:24.685Z,32.20
2018-07-19T13:21:55.103Z,32.20
2018-07-19T13:24:25.898Z,32.27
2018-07-19T13:26:56.119Z,32.20
2018-07-19T13:29:26.029Z,32.12
2018-07-19T13:31:56.469Z,32.24
2018-07-19T13:34:26.823Z,32.28
2018-07-19T13:36:56.987Z,32.21
2018-07-19T13:39:27.251Z,31.96
2018-07-19T13:41:57.598Z,31.62
2018-07-19T13:44:27.645Z,31.33
2018-07-19T13:46:57.751Z,30.58
2018-07-19T13:49:28.961Z,30.24
2018-07-19T13:51:59.190Z,29.94
2018-07-19T13:54:46.749Z,30.27
2018-07-19T13:57:17.029Z,30.67
2018-07-19T13:59:47.366Z,30.96
2018-07-19T14:02:17.408Z,31.13
2018-07-19T14:04:47.632Z,31.18
2018-07-19T14:07:17.825Z,31.13
2018-07-19T14:09:48.066Z,31.07
2018-07-19T14:12:18.125Z,31.13
2018-07-19T14:14:48.315Z,30.99
2018-07-19T14:17:18.521Z,30.93
2018-07-19T14:19:48.864Z,30.88
2018-07-19T14:22:19.215Z,30.81
2018-07-19T14:24:49.369Z,30.74
2018-07-19T14:27:19.514Z,30.60
2018-07-19T14:29:49.594Z,30.60
2018-07-19T14:32:19.931Z,30.60
2018-07-19T14:34:50.236Z,30.80
2018-07-19T14:37:20.255Z,31.06
2018-07-19T14:39:50.645Z,31.21
2018-07-19T14:42:20.873Z,31.20
2018-07-19T14:44:50.805Z,30.97
2018-07-19T14:47:21.017Z,31.04
2018-07-19T14:49:51.026Z,31.10
2018-07-19T14:52:21.532Z,30.99
2018-07-19T14:54:52.475Z,30.95
2018-07-19T14:57:22.923Z,30.88
2018-07-19T14:59:52.932Z,30.81
2018-07-19T15:02:23.291Z,30.65
2018-07-19T15:04:53.409Z,30.62
2018-07-19T15:07:23.702Z,30.59
2018-07-19T15:09:53.884Z,30.58
2018-07-19T15:12:24.381Z,30.59
2018-07-19T15:14:54.635Z,30.55
2018-07-19T15:17:24.809Z,30.79
2018-07-19T15:19:55.094Z,30.97
2018-07-19T15:22:25.746Z,31.21
2018-07-19T15:24:55.887Z,31.42
2018-07-19T15:27:26.065Z,31.35
2018-07-19T15:29:56.241Z,31.33
2018-07-19T15:32:26.686Z,31.38
2018-07-19T15:34:56.735Z,31.19
2018-07-19T15:37:26.886Z,31.10
2018-07-19T15:39:56.925Z,31.29
2018-07-19T15:42:27.344Z,31.62
2018-07-19T15:44:57.422Z,31.97
2018-07-19T15:47:27.575Z,32.37
2018-07-19T15:49:57.919Z,32.35
2018-07-19T15:52:28.106Z,32.54
2018-07-19T15:54:58.126Z,32.75
2018-07-19T15:57:28.416Z,33.05
2018-07-19T15:59:58.470Z,33.16
2018-07-19T16:02:28.667Z,33.34
2018-07-19T16:04:58.939Z,33.59
2018-07-19T16:07:29.307Z,33.68
2018-07-19T16:09:59.389Z,33.78
2018-07-19T16:12:29.265Z,34.04
2018-07-19T16:14:59.211Z,34.31
2018-07-19T16:17:29.229Z,34.31
2018-07-19T16:20:00.215Z,34.21
2018-07-19T16:22:31.301Z,34.59
2018-07-19T16:25:02.137Z,35.17
2018-07-19T16:27:32.289Z,35.82
2018-07-19T16:30:02.617Z,36.28
2018-07-19T16:32:32.636Z,36.77
2018-07-19T16:35:03.243Z,37.08
2018-07-19T16:37:33.464Z,37.22
2018-07-19T16:40:03.646Z,37.27
2018-07-19T16:42:34.052Z,37.42
2018-07-19T16:45:04.525Z,37.20
2018-07-19T16:47:34.720Z,37.42
2018-07-19T16:50:06.605Z,37.94
2018-07-19T16:52:36.692Z,38.04
2018-07-19T16:55:06.806Z,38.12
2018-07-19T16:57:37.011Z,37.81
2018-07-19T17:00:07.890Z,37.77
2018-07-19T17:02:38.381Z,37.68
2018-07-19T17:05:08.752Z,37.28
2018-07-19T17:07:38.949Z,37.32
2018-07-19T17:10:09.889Z,37.15
2018-07-19T17:12:40.051Z,36.91
2018-07-19T17:15:10.429Z,36.51
2018-07-19T17:17:40.756Z,36.23
2018-07-19T17:20:11.217Z,35.94
2018-07-19T17:22:41.411Z,35.51
2018-07-19T17:25:11.606Z,35.14
2018-07-19T17:27:41.625Z,35.02
2018-07-19T17:30:11.880Z,35.04
2018-07-19T17:32:42.004Z,35.29
2018-07-19T17:35:12.165Z,35.24
2018-07-19T17:37:42.303Z,34.78
2018-07-19T17:40:12.785Z,34.63
2018-07-19T17:42:43.318Z,34.42
2018-07-19T17:45:14.209Z,33.89
2018-07-19T17:47:44.921Z,33.67
2018-07-19T17:50:15.019Z,33.51
2018-07-19T17:52:45.370Z,33.13
2018-07-19T17:55:15.516Z,32.84
2018-07-19T17:57:45.813Z,32.70
2018-07-19T18:00:15.900Z,32.62
2018-07-19T18:02:46.006Z,32.37
2018-07-19T18:05:16.158Z,32.10
2018-07-19T18:07:47.268Z,31.82
2018-07-19T18:10:17.799Z,31.45
2018-07-19T18:12:48.754Z,31.14
2018-07-19T18:24:06.749Z,30.96
2018-07-19T18:26:37.130Z,30.96
2018-07-19T18:29:08.156Z,31.47
2018-07-19T18:31:38.226Z,31.90
2018-07-19T18:34:08.338Z,32.23
2018-07-19T18:36:38.581Z,32.41
2018-07-19T18:39:11.902Z,32.33
2018-07-19T18:41:42.173Z,32.03
2018-07-19T18:44:12.645Z,31.64
2018-07-19T18:46:43.203Z,31.27
2018-07-19T18:49:13.582Z,30.95
2018-07-19T18:51:43.824Z,30.71
2018-07-19T18:54:13.915Z,30.51
2018-07-19T18:56:44.209Z,30.33
2018-07-19T18:59:14.320Z,30.15
2018-07-19T19:01:44.562Z,30.02
2018-07-19T19:04:14.690Z,29.94
2018-07-19T19:06:44.928Z,29.85
2018-07-19T19:09:14.980Z,29.76
2018-07-19T19:11:45.283Z,29.66
2018-07-19T19:14:15.476Z,29.61
2018-07-19T19:16:46.691Z,29.55
2018-07-19T19:19:17.277Z,29.50
2018-07-19T19:21:48.785Z,29.34
2018-07-19T19:24:19.931Z,29.28
2018-07-19T19:26:51.193Z,29.19
2018-07-19T19:29:21.856Z,29.11
2018-07-19T19:31:52.912Z,29.06
2018-07-19T19:34:23.788Z,28.94
2018-07-19T19:36:55.206Z,28.87
2018-07-19T19:39:25.960Z,28.80
2018-07-19T19:41:57.294Z,28.73
2018-07-19T19:44:28.220Z,28.65
2018-07-19T19:46:59.501Z,28.62
2018-07-19T19:49:30.681Z,28.55
2018-07-19T19:52:01.582Z,28.47
2018-07-19T19:54:32.470Z,28.41
2018-07-19T19:57:02.502Z,28.30
2018-07-19T19:59:32.800Z,28.21
2018-07-19T20:02:02.969Z,28.16
2018-07-19T20:04:33.250Z,28.16
2018-07-19T20:07:03.338Z,28.02
2018-07-19T20:09:33.445Z,27.95
2018-07-19T20:12:03.936Z,27.87
2018-07-19T20:14:34.625Z,27.88
2018-07-19T20:17:04.846Z,27.85
2018-07-19T20:19:35.065Z,27.85
2018-07-19T20:22:05.634Z,27.82
2018-07-19T20:24:35.822Z,27.77
2018-07-19T20:27:06.025Z,27.72
2018-07-19T20:29:36.263Z,27.67
2018-07-19T20:32:06.594Z,27.57
2018-07-19T20:34:37.216Z,27.43
2018-07-19T20:37:07.564Z,27.24
2018-07-19T20:39:37.944Z,27.13
2018-07-19T20:42:09.311Z,27.05
2018-07-19T20:44:39.510Z,26.96
2018-07-19T20:47:09.798Z,26.87
2018-07-19T20:49:40.196Z,26.79
2018-07-19T20:52:10.479Z,26.74
2018-07-19T20:54:40.854Z,26.70
2018-07-19T20:57:11.187Z,26.61
2018-07-19T20:59:41.392Z,26.55
2018-07-19T21:02:11.396Z,26.47
2018-07-19T21:04:41.418Z,26.40
2018-07-19T21:07:11.749Z,26.37
2018-07-19T21:09:41.845Z,26.28
2018-07-19T21:12:12.034Z,26.22
2018-07-19T21:14:42.137Z,26.18
2018-07-19T21:17:12.421Z,26.16
2018-07-19T21:19:42.525Z,26.13
2018-07-19T21:22:12.522Z,26.06
2018-07-19T21:24:42.957Z,25.99
2018-07-19T21:27:13.106Z,25.92
2018-07-19T21:29:43.525Z,25.85
2018-07-19T21:32:14.660Z,25.80
2018-07-19T21:34:45.836Z,25.78
2018-07-19T21:37:16.766Z,25.72
2018-07-19T21:39:47.786Z,25.71
2018-07-19T21:42:18.615Z,25.65
2018-07-19T21:44:49.689Z,25.60
2018-07-19T21:47:19.751Z,25.57
2018-07-19T21:49:49.885Z,25.47
2018-07-19T21:52:20.150Z,25.43
2018-07-19T21:54:50.331Z,25.39
2018-07-19T21:57:20.433Z,25.34
2018-07-19T21:59:50.578Z,25.28
2018-07-19T22:02:20.780Z,24.98
2018-07-19T22:04:50.960Z,24.78
2018-07-19T22:07:20.641Z,24.68
2018-07-19T22:09:50.871Z,24.72
2018-07-19T22:12:21.130Z,24.80
2018-07-19T22:21:03.861Z,24.83
2018-07-19T22:23:34.085Z,24.81
2018-07-19T22:26:04.365Z,24.69
2018-07-19T22:28:34.474Z,24.65
2018-07-19T22:31:04.899Z,24.69
2018-07-19T22:33:35.024Z,24.76
2018-07-19T22:36:05.452Z,24.76
2018-07-19T22:38:35.469Z,24.77
2018-07-19T22:41:05.606Z,24.75
2018-07-19T22:43:35.748Z,24.74
2018-07-19T22:46:06.274Z,24.76
2018-07-19T22:48:36.081Z,24.68
2018-07-19T22:51:06.351Z,24.59
2018-07-19T22:53:36.584Z,24.57
2018-07-19T22:56:06.821Z,24.51
2018-07-19T22:58:36.779Z,24.47
2018-07-19T23:01:07.153Z,24.49
2018-07-19T23:03:37.395Z,24.41
2018-07-19T23:06:08.482Z,24.31
2018-07-19T23:08:39.605Z,24.25
2018-07-19T23:11:10.736Z,24.13
2018-07-19T23:13:41.800Z,24.11
2018-07-19T23:16:12.957Z,24.12
2018-07-19T23:18:44.786Z,24.15
2018-07-19T23:21:15.345Z,24.15
2018-07-19T23:23:46.562Z,24.17
2018-07-19T23:26:16.805Z,24.18
2018-07-19T23:28:47.125Z,24.15
2018-07-19T23:31:17.290Z,24.15
2018-07-19T23:33:47.440Z,24.05
2018-07-19T23:36:20.704Z,23.98
2018-07-19T23:38:59.021Z,23.92
2018-07-19T23:41:37.745Z,23.90
2018-07-19T23:44:12.491Z,23.83
2018-07-19T23:46:48.127Z,23.80
2018-07-19T23:49:18.048Z,23.81
2018-07-19T23:51:48.125Z,23.82
2018-07-19T23:54:18.236Z,23.72
2018-07-19T23:56:48.559Z,23.67
2018-07-19T23:59:18.750Z,23.60
